createdAt,value
2018-07-19T00:58:54.150Z,17.70
2018-07-19T01:01:24.152Z,17.67
2018-07-19T01:03:54.005Z,17.67
2018-07-19T01:06:23.205Z,17.64
2018-07-19T01:08:52.273Z,17.64
2018-07-19T01:11:21.438Z,17.60
2018-07-19T01:13:50.918Z,17.42
2018-07-19T01:16:21.246Z,17.28
2018-07-19T01:18:51.498Z,17.21
2018-07-19T01:21:21.491Z,17.11
2018-07-19T01:23:51.410Z,17.09
2018-07-19T01:26:21.185Z,17.07
2018-07-19T01:28:51.212Z,17.02
2018-07-19T01:31:21.226Z,17.00
2018-07-19T01:33:51.350Z,16.93
2018-07-19T01:36:21.390Z,16.95
2018-07-19T01:38:51.722Z,16.97
2018-07-19T01:41:32.309Z,16.97
2018-07-19T01:44:01.365Z,16.96
2018-07-19T01:46:30.404Z,16.93
2018-07-19T01:48:59.590Z,16.94
2018-07-19T01:51:29.094Z,16.92
2018-07-19T01:53:58.180Z,16.86
2018-07-19T01:56:27.326Z,16.77
2018-07-19T01:58:56.714Z,16.71
2018-07-19T02:01:25.933Z,16.65
2018-07-19T02:03:55.356Z,16.58
2018-07-19T02:06:24.507Z,16.53
2018-07-19T02:08:53.626Z,16.50
2018-07-19T02:11:23.329Z,16.52
2018-07-19T02:13:52.663Z,16.52
2018-07-19T02:16:22.089Z,16.51
2018-07-19T02:18:51.623Z,16.51
2018-07-19T02:21:21.541Z,16.53
2018-07-19T02:46:26.081Z,16.51
2018-07-19T02:48:55.436Z,16.20
2018-07-19T02:51:24.530Z,16.18
2018-07-19T02:53:53.587Z,16.12
2018-07-19T02:56:22.809Z,16.10
2018-07-19T02:58:52.252Z,16.04
2018-07-19T03:01:21.961Z,16.02
2018-07-19T03:03:52.119Z,16.03
2018-07-19T03:06:21.953Z,16.04
2018-07-19T03:08:52.472Z,16.04
2018-07-19T03:11:22.531Z,16.06
2018-07-19T03:13:52.201Z,16.06
2018-07-19T03:16:22.207Z,16.04
2018-07-19T03:18:52.066Z,16.00
2018-07-19T03:21:22.181Z,16.00
2018-07-19T03:23:52.119Z,16.07
2018-07-19T03:26:22.507Z,16.11
2018-07-19T03:28:52.143Z,16.09
2018-07-19T03:31:22.523Z,16.06
2018-07-19T03:33:52.181Z,16.03
2018-07-19T03:36:22.358Z,16.01
2018-07-19T03:38:52.193Z,15.94
2018-07-19T03:41:22.471Z,15.91
2018-07-19T03:43:52.376Z,15.82
2018-07-19T03:46:22.781Z,15.74
2018-07-19T03:48:52.327Z,15.76
2018-07-19T03:51:53.211Z,15.74
2018-07-19T03:54:22.453Z,15.69
2018-07-19T03:56:52.407Z,15.70
2018-07-19T03:59:22.659Z,15.75
2018-07-19T04:01:52.596Z,15.75
2018-07-19T04:04:22.539Z,15.76
2018-07-19T04:06:52.425Z,15.74
2018-07-19T04:09:22.653Z,15.75
2018-07-19T04:11:52.593Z,15.76
2018-07-19T04:14:22.945Z,15.77
2018-07-19T04:16:52.940Z,15.80
2018-07-19T04:19:22.854Z,15.75
2018-07-19T04:21:52.761Z,15.70
2018-07-19T04:24:23.084Z,15.70
2018-07-19T04:26:53.006Z,15.59
2018-07-19T04:29:23.705Z,15.56
2018-07-19T04:31:53.105Z,15.64
2018-07-19T04:34:22.742Z,15.72
2018-07-19T04:36:53.223Z,15.80
2018-07-19T04:39:23.012Z,15.78
2018-07-19T04:41:52.708Z,15.86
2018-07-19T04:44:23.245Z,15.90
2018-07-19T04:47:00.795Z,15.99
2018-07-19T04:49:31.965Z,16.10
2018-07-19T04:52:02.281Z,16.18
2018-07-19T04:54:31.569Z,16.23
2018-07-19T04:57:01.190Z,16.27
2018-07-19T04:59:30.533Z,16.32
2018-07-19T05:01:59.618Z,16.35
2018-07-19T05:04:28.778Z,16.35
2018-07-19T05:06:58.162Z,16.43
2018-07-19T05:09:27.310Z,16.55
2018-07-19T05:11:56.397Z,16.59
2018-07-19T05:14:25.453Z,16.66
2018-07-19T05:16:54.577Z,16.74
2018-07-19T05:19:24.057Z,16.83
2018-07-19T05:21:53.503Z,16.91
2018-07-19T05:24:23.260Z,16.99
2018-07-19T05:26:53.091Z,17.07
2018-07-19T05:29:23.409Z,17.15
2018-07-19T05:31:53.280Z,17.25
2018-07-19T05:34:23.208Z,17.36
2018-07-19T05:36:53.318Z,17.46
2018-07-19T05:39:23.422Z,17.54
2018-07-19T05:41:53.344Z,17.61
2018-07-19T05:44:23.622Z,17.67
2018-07-19T05:46:53.461Z,17.72
2018-07-19T05:49:23.476Z,17.83
2018-07-19T05:51:54.202Z,17.93
2018-07-19T05:54:23.370Z,17.99
2018-07-19T05:56:53.640Z,18.03
2018-07-19T05:59:23.370Z,18.09
2018-07-19T06:01:53.907Z,18.15
2018-07-19T06:04:23.385Z,18.20
2018-07-19T06:06:53.394Z,18.25
2018-07-19T06:09:23.599Z,18.32
2018-07-19T06:11:53.871Z,18.39
2018-07-19T06:14:23.771Z,18.46
2018-07-19T06:16:53.821Z,18.56
2018-07-19T06:19:23.634Z,18.67
2018-07-19T06:21:53.806Z,18.76
2018-07-19T06:24:23.890Z,18.88
2018-07-19T06:26:53.835Z,19.02
2018-07-19T06:29:24.100Z,19.13
2018-07-19T06:31:53.779Z,19.21
2018-07-19T06:34:24.045Z,19.28
2018-07-19T06:36:53.945Z,19.33
2018-07-19T06:39:24.247Z,19.39
2018-07-19T06:41:54.067Z,19.41
2018-07-19T06:44:23.977Z,19.42
2018-07-19T06:46:54.022Z,19.46
2018-07-19T06:49:23.888Z,19.60
2018-07-19T06:51:54.144Z,19.69
2018-07-19T06:54:23.823Z,19.75
2018-07-19T06:56:53.909Z,19.82
2018-07-19T06:59:24.279Z,19.91
2018-07-19T07:01:54.308Z,19.97
2018-07-19T07:04:24.235Z,20.00
2018-07-19T07:06:54.214Z,20.06
2018-07-19T07:09:24.453Z,20.13
2018-07-19T07:11:54.380Z,20.23
2018-07-19T07:14:24.312Z,20.34
2018-07-19T07:16:54.561Z,20.38
2018-07-19T07:19:24.410Z,20.45
2018-07-19T07:21:54.320Z,20.56
2018-07-19T07:24:24.234Z,20.63
2018-07-19T07:26:54.698Z,20.76
2018-07-19T07:29:24.252Z,20.83
2018-07-19T07:31:54.549Z,20.87
2018-07-19T07:34:24.476Z,20.94
2018-07-19T07:36:54.736Z,21.02
2018-07-19T07:39:24.455Z,21.06
2018-07-19T07:41:54.645Z,21.11
2018-07-19T07:44:24.576Z,21.22
2018-07-19T07:46:54.486Z,21.27
2018-07-19T07:49:24.582Z,21.32
2018-07-19T07:51:54.502Z,21.42
2018-07-19T07:54:24.921Z,21.49
2018-07-19T07:56:54.596Z,21.66
2018-07-19T07:59:24.903Z,21.79
2018-07-19T08:01:54.593Z,21.93
2018-07-19T08:04:24.725Z,22.05
2018-07-19T08:06:55.054Z,22.07
2018-07-19T08:09:24.785Z,22.09
2018-07-19T08:11:54.879Z,22.09
2018-07-19T08:14:24.824Z,22.12
2018-07-19T08:16:54.703Z,22.23
2018-07-19T08:19:24.973Z,22.39
2018-07-19T08:21:55.426Z,22.47
2018-07-19T08:24:25.092Z,22.57
2018-07-19T08:26:54.817Z,22.67
2018-07-19T08:29:24.803Z,22.65
2018-07-19T08:31:54.011Z,22.70
2018-07-19T08:34:23.133Z,22.73
2018-07-19T08:36:52.215Z,22.83
2018-07-19T08:39:21.478Z,22.93
2018-07-19T08:41:50.570Z,22.95
2018-07-19T08:44:19.607Z,22.98
2018-07-19T08:46:48.706Z,23.07
2018-07-19T08:49:17.800Z,23.15
2018-07-19T08:51:46.906Z,23.15
2018-07-19T08:54:16.009Z,23.25
2018-07-19T08:56:45.151Z,23.36
2018-07-19T08:59:14.265Z,23.44
2018-07-19T09:01:43.665Z,23.46
2018-07-19T09:04:12.782Z,23.51
2018-07-19T09:06:41.847Z,23.55
2018-07-19T09:09:11.267Z,23.64
2018-07-19T09:11:40.300Z,23.69
2018-07-19T09:14:09.364Z,23.79
2018-07-19T09:16:38.477Z,23.86
2018-07-19T09:19:07.539Z,23.87
2018-07-19T09:21:36.618Z,23.96
2018-07-19T09:24:06.017Z,24.03
2018-07-19T09:26:35.170Z,24.17
2018-07-19T09:29:04.267Z,24.32
2018-07-19T09:31:33.332Z,24.49
2018-07-19T09:34:02.478Z,24.48
2018-07-19T09:36:31.573Z,24.51
2018-07-19T09:39:00.647Z,24.50
2018-07-19T09:41:29.706Z,24.54
2018-07-19T09:43:58.850Z,24.65
2018-07-19T09:46:27.918Z,24.81
2018-07-19T09:48:56.994Z,24.94
2018-07-19T09:51:26.098Z,24.88
2018-07-19T09:53:55.917Z,24.97
2018-07-19T09:56:25.910Z,24.96
2018-07-19T09:58:55.854Z,24.97
2018-07-19T10:01:25.833Z,25.03
2018-07-19T10:03:55.949Z,25.14
2018-07-19T10:06:26.050Z,25.28
2018-07-19T10:08:55.929Z,25.30
2018-07-19T10:11:25.955Z,25.29
2018-07-19T10:13:55.042Z,25.19
2018-07-19T10:16:24.176Z,25.08
2018-07-19T10:18:53.303Z,25.05
2018-07-19T10:21:22.407Z,25.13
2018-07-19T10:23:51.512Z,25.23
2018-07-19T10:26:20.706Z,25.31
2018-07-19T10:28:50.032Z,25.42
2018-07-19T10:31:19.239Z,25.45
2018-07-19T10:33:48.491Z,25.62
2018-07-19T10:36:17.601Z,25.74
2018-07-19T10:38:46.677Z,25.74
2018-07-19T10:41:15.852Z,25.74
2018-07-19T10:43:45.308Z,25.66
2018-07-19T10:46:14.404Z,25.74
2018-07-19T10:48:43.484Z,25.78
2018-07-19T10:51:12.582Z,25.75
2018-07-19T10:53:41.651Z,25.77
2018-07-19T10:56:10.726Z,25.93
2018-07-19T10:58:39.846Z,26.00
2018-07-19T11:01:08.928Z,26.03
2018-07-19T11:03:38.002Z,25.96
2018-07-19T11:06:07.062Z,26.04
2018-07-19T11:08:36.152Z,26.18
2018-07-19T11:11:05.475Z,26.26
2018-07-19T11:13:34.543Z,26.27
2018-07-19T11:16:03.613Z,26.30
2018-07-19T11:18:32.793Z,26.45
2018-07-19T11:21:01.876Z,26.56
2018-07-19T11:23:30.925Z,26.59
2018-07-19T11:26:00.023Z,26.50
2018-07-19T11:28:29.132Z,26.62
2018-07-19T11:30:58.156Z,26.77
2018-07-19T11:33:27.253Z,26.81
2018-07-19T11:35:57.198Z,26.90
2018-07-19T11:38:27.354Z,26.88
2018-07-19T11:40:57.196Z,26.84
2018-07-19T11:43:27.332Z,26.90
2018-07-19T11:45:57.515Z,26.89
2018-07-19T11:48:27.464Z,26.82
2018-07-19T11:50:57.499Z,26.91
2018-07-19T11:53:27.523Z,26.99
2018-07-19T11:55:57.324Z,27.05
2018-07-19T11:58:27.442Z,27.12
2018-07-19T12:00:57.579Z,27.22
2018-07-19T12:03:27.808Z,27.28
2018-07-19T12:05:57.418Z,27.33
2018-07-19T12:08:27.334Z,27.36
2018-07-19T12:10:58.026Z,27.44
2018-07-19T12:13:27.636Z,27.52
2018-07-19T12:15:57.464Z,27.61
2018-07-19T12:18:27.401Z,27.66
2018-07-19T12:20:57.694Z,27.72
2018-07-19T12:23:27.436Z,27.77
2018-07-19T12:25:57.587Z,27.59
2018-07-19T12:28:27.541Z,27.69
2018-07-19T12:30:57.453Z,27.77
2018-07-19T12:33:27.518Z,27.84
2018-07-19T12:35:57.608Z,27.86
2018-07-19T12:38:27.588Z,27.95
2018-07-19T12:40:58.284Z,28.06
2018-07-19T12:43:27.628Z,28.16
2018-07-19T12:45:57.983Z,28.28
2018-07-19T12:48:27.660Z,28.28
2018-07-19T12:50:57.912Z,28.35
2018-07-19T12:53:27.891Z,28.26
2018-07-19T12:55:58.152Z,28.23
2018-07-19T12:58:27.782Z,28.31
2018-07-19T13:00:57.818Z,28.41
2018-07-19T13:03:27.856Z,28.46
2018-07-19T13:05:58.218Z,28.48
2018-07-19T13:08:28.192Z,28.37
2018-07-19T13:10:58.109Z,28.36
2018-07-19T13:13:28.719Z,28.05
2018-07-19T13:15:58.405Z,27.99
2018-07-19T13:18:28.277Z,28.20
2018-07-19T13:20:58.211Z,28.34
2018-07-19T13:23:28.070Z,28.55
2018-07-19T13:25:58.089Z,28.83
2018-07-19T13:28:28.404Z,29.08
2018-07-19T13:30:58.281Z,29.15
2018-07-19T13:33:28.092Z,29.18
2018-07-19T13:35:58.438Z,29.19
2018-07-19T13:38:28.021Z,29.35
2018-07-19T13:40:58.584Z,29.49
2018-07-19T13:43:28.210Z,29.59
2018-07-19T13:45:58.450Z,29.49
2018-07-19T13:48:28.481Z,29.45
2018-07-19T13:50:58.226Z,29.61
2018-07-19T13:53:40.195Z,29.81
2018-07-19T13:56:09.943Z,29.84
2018-07-19T13:58:39.510Z,29.89
2018-07-19T14:01:08.616Z,30.05
2018-07-19T14:03:37.739Z,30.20
2018-07-19T14:06:06.901Z,30.58
2018-07-19T14:08:35.979Z,30.91
2018-07-19T14:11:05.029Z,31.29
2018-07-19T14:13:34.541Z,31.50
2018-07-19T14:16:03.717Z,31.72
2018-07-19T14:18:33.145Z,31.90
2018-07-19T14:21:02.237Z,32.21
2018-07-19T14:23:31.379Z,32.50
2018-07-19T14:26:00.469Z,32.88
2018-07-19T14:28:29.549Z,33.09
2018-07-19T14:30:58.622Z,33.02
2018-07-19T14:33:28.586Z,32.78
2018-07-19T14:35:58.894Z,33.38
2018-07-19T14:38:28.463Z,33.62
2018-07-19T14:40:58.752Z,33.63
2018-07-19T14:43:28.677Z,33.84
2018-07-19T14:45:58.617Z,34.36
2018-07-19T14:48:28.915Z,34.35
2018-07-19T14:50:58.641Z,33.92
2018-07-19T14:53:28.804Z,33.93
2018-07-19T14:55:59.009Z,34.14
2018-07-19T14:58:29.020Z,34.68
2018-07-19T15:00:58.889Z,34.97
2018-07-19T15:03:28.945Z,34.89
2018-07-19T15:05:59.027Z,34.90
2018-07-19T15:08:28.972Z,34.99
2018-07-19T15:10:59.013Z,35.09
2018-07-19T15:13:28.943Z,35.12
2018-07-19T15:15:59.203Z,34.91
2018-07-19T15:18:29.151Z,34.97
2018-07-19T15:20:59.360Z,34.43
2018-07-19T15:23:29.113Z,34.68
2018-07-19T15:25:59.687Z,35.11
2018-07-19T15:28:29.079Z,35.36
2018-07-19T15:30:59.145Z,35.44
2018-07-19T15:33:29.128Z,35.28
2018-07-19T15:35:59.339Z,34.44
2018-07-19T15:38:29.299Z,34.67
2018-07-19T15:40:59.197Z,35.04
2018-07-19T15:43:29.206Z,35.19
2018-07-19T15:45:59.101Z,34.94
2018-07-19T15:48:29.330Z,35.02
2018-07-19T15:50:59.339Z,35.19
2018-07-19T15:53:29.259Z,34.78
2018-07-19T15:55:59.634Z,34.63
2018-07-19T15:58:29.403Z,34.49
2018-07-19T16:00:59.767Z,34.52
2018-07-19T16:03:29.365Z,34.50
2018-07-19T16:06:00.021Z,34.42
2018-07-19T16:08:29.303Z,34.39
2018-07-19T16:10:59.848Z,34.26
2018-07-19T16:13:29.637Z,33.62
2018-07-19T16:15:59.532Z,32.98
2018-07-19T16:18:29.611Z,33.02
2018-07-19T16:20:59.972Z,33.03
2018-07-19T16:23:29.454Z,32.98
2018-07-19T16:25:59.699Z,33.00
2018-07-19T16:28:30.130Z,32.55
2018-07-19T16:30:59.600Z,31.93
2018-07-19T16:33:29.895Z,31.55
2018-07-19T16:35:59.832Z,31.30
2018-07-19T16:38:29.731Z,30.96
2018-07-19T16:41:00.066Z,30.67
2018-07-19T16:43:29.822Z,30.49
2018-07-19T16:45:59.932Z,30.34
2018-07-19T16:48:30.107Z,30.13
2018-07-19T16:51:00.033Z,29.85
2018-07-19T16:53:30.037Z,29.66
2018-07-19T16:56:00.287Z,29.46
2018-07-19T16:58:30.189Z,29.24
2018-07-19T17:01:00.105Z,29.05
2018-07-19T17:03:30.021Z,28.80
2018-07-19T17:06:00.350Z,28.45
2018-07-19T17:08:30.382Z,28.28
2018-07-19T17:11:00.094Z,28.17
2018-07-19T17:13:30.201Z,28.06
2018-07-19T17:16:00.215Z,27.96
2018-07-19T17:18:30.344Z,27.85
2018-07-19T17:21:00.360Z,27.78
2018-07-19T17:23:30.482Z,27.74
2018-07-19T17:26:00.648Z,27.69
2018-07-19T17:28:30.507Z,27.62
2018-07-19T17:31:00.497Z,27.53
2018-07-19T17:33:30.402Z,27.39
2018-07-19T17:36:00.886Z,27.34
2018-07-19T17:38:30.483Z,27.30
2018-07-19T17:41:00.742Z,27.22
2018-07-19T17:43:31.009Z,27.17
2018-07-19T17:46:00.386Z,27.08
2018-07-19T17:48:30.566Z,27.04
2018-07-19T17:51:00.567Z,27.00
2018-07-19T17:53:30.803Z,26.93
2018-07-19T17:56:00.454Z,26.86
2018-07-19T17:58:30.383Z,26.81
2018-07-19T18:01:00.563Z,26.74
2018-07-19T18:03:33.682Z,26.63
2018-07-19T18:06:02.977Z,26.58
2018-07-19T18:08:32.505Z,26.50
2018-07-19T18:11:02.007Z,26.42
2018-07-19T18:13:31.395Z,26.37
2018-07-19T18:16:00.733Z,26.35
2018-07-19T18:18:30.795Z,26.30
2018-07-19T18:21:01.185Z,26.22
2018-07-19T18:23:31.055Z,26.12
2018-07-19T18:26:01.019Z,26.06
2018-07-19T18:28:30.967Z,25.97
2018-07-19T18:31:00.986Z,25.95
2018-07-19T18:33:30.832Z,25.89
2018-07-19T18:36:01.012Z,25.80
2018-07-19T18:38:30.964Z,25.75
2018-07-19T18:41:01.327Z,25.71
2018-07-19T18:43:31.197Z,25.64
2018-07-19T18:46:02.405Z,25.54
2018-07-19T18:48:32.210Z,25.45
2018-07-19T18:51:01.571Z,25.37
2018-07-19T18:53:31.245Z,25.32
2018-07-19T18:56:01.109Z,25.28
2018-07-19T18:58:30.325Z,25.23
2018-07-19T19:00:59.930Z,25.13
2018-07-19T19:03:29.358Z,25.04
2018-07-19T19:05:58.474Z,24.94
2018-07-19T19:08:28.194Z,24.82
2018-07-19T19:10:57.388Z,24.72
2018-07-19T19:13:27.002Z,24.62
2018-07-19T19:28:51.548Z,23.78
2018-07-19T19:31:21.946Z,23.60
2018-07-19T19:33:51.316Z,23.46
2018-07-19T19:36:20.401Z,23.34
2018-07-19T19:38:49.524Z,23.19
2018-07-19T19:41:18.676Z,23.08
2018-07-19T19:43:47.987Z,22.98
2018-07-19T19:46:17.451Z,22.88
2018-07-19T19:48:47.098Z,22.79
2018-07-19T19:51:16.204Z,22.67
2018-07-19T19:53:45.737Z,22.50
2018-07-19T19:56:14.834Z,22.33
2018-07-19T19:58:44.291Z,22.25
2018-07-19T20:01:13.407Z,22.12
2018-07-19T20:03:42.901Z,22.02
2018-07-19T20:06:12.011Z,21.95
2018-07-19T20:08:41.453Z,21.91
2018-07-19T20:11:10.599Z,21.85
2018-07-19T20:13:40.177Z,21.78
2018-07-19T20:16:10.063Z,21.74
2018-07-19T20:18:39.779Z,21.70
2018-07-19T20:21:09.575Z,21.61
2018-07-19T20:23:39.675Z,21.56
2018-07-19T20:26:09.367Z,21.50
2018-07-19T20:28:39.294Z,21.42
2018-07-19T20:31:08.726Z,21.35
2018-07-19T20:33:38.175Z,21.31
2018-07-19T20:36:07.306Z,21.25
2018-07-19T20:38:36.411Z,21.19
2018-07-19T20:41:05.542Z,21.16
2018-07-19T20:43:35.034Z,21.09
2018-07-19T20:46:04.236Z,21.05
2018-07-19T20:48:34.196Z,20.96
2018-07-19T20:51:04.288Z,20.86
2018-07-19T20:53:34.287Z,20.80
2018-07-19T20:56:04.582Z,20.66
2018-07-19T20:58:34.315Z,20.64
2018-07-19T21:01:04.341Z,20.51
2018-07-19T21:03:34.352Z,20.42
2018-07-19T21:06:04.669Z,20.35
2018-07-19T21:08:34.501Z,20.33
2018-07-19T21:11:04.669Z,20.29
2018-07-19T21:13:34.762Z,20.24
2018-07-19T21:16:04.811Z,20.20
2018-07-19T21:18:34.805Z,20.16
2018-07-19T21:21:04.794Z,20.13
2018-07-19T21:23:34.599Z,20.05
2018-07-19T21:26:04.562Z,20.00
2018-07-19T21:28:34.598Z,19.97
2018-07-19T21:31:05.072Z,19.91
2018-07-19T21:33:34.599Z,19.84
2018-07-19T21:36:05.026Z,19.81
2018-07-19T21:38:34.802Z,19.75
2018-07-19T21:41:05.647Z,19.68
2018-07-19T21:43:34.744Z,19.60
2018-07-19T21:46:04.958Z,19.52
2018-07-19T21:48:35.184Z,19.45
2018-07-19T21:51:05.462Z,19.37
2018-07-19T21:53:34.800Z,19.29
2018-07-19T21:56:04.952Z,19.23
2018-07-19T21:58:35.430Z,19.16
2018-07-19T22:01:10.060Z,19.12
2018-07-19T22:03:39.540Z,19.06
2018-07-19T22:06:09.429Z,19.04
2018-07-19T22:08:38.671Z,19.03
2018-07-19T22:11:07.797Z,19.04
2018-07-19T22:13:37.301Z,19.00
2018-07-19T22:16:06.849Z,19.01
2018-07-19T22:18:36.135Z,18.98
2018-07-19T22:21:05.487Z,18.96
2018-07-19T22:23:35.272Z,18.95
2018-07-19T22:26:05.341Z,18.92
2018-07-19T22:28:35.587Z,18.89
2018-07-19T22:31:05.169Z,18.88
2018-07-19T22:33:35.471Z,18.88
2018-07-19T22:36:05.524Z,18.84
2018-07-19T22:38:35.315Z,18.80
2018-07-19T22:41:05.639Z,18.76
2018-07-19T22:43:35.432Z,18.70
2018-07-19T22:46:06.216Z,18.61
2018-07-19T22:48:35.402Z,18.52
2018-07-19T22:51:05.677Z,18.44
2018-07-19T22:53:35.400Z,18.29
2018-07-19T22:56:05.866Z,18.21
2018-07-19T22:58:35.454Z,18.18
2018-07-19T23:01:05.616Z,18.19
2018-07-19T23:03:36.089Z,18.20
2018-07-19T23:06:05.576Z,18.20
2018-07-19T23:08:35.726Z,18.15
2018-07-19T23:11:05.676Z,18.15
2018-07-19T23:13:36.124Z,18.17
2018-07-19T23:16:05.707Z,18.20
2018-07-19T23:18:35.965Z,18.20
2018-07-19T23:21:05.792Z,18.18
2018-07-19T23:23:35.793Z,18.18
2018-07-19T23:26:06.046Z,18.17
2018-07-19T23:28:35.979Z,18.12
2018-07-19T23:31:05.993Z,18.06
2018-07-19T23:33:36.360Z,17.94
2018-07-19T23:36:09.563Z,17.90
2018-07-19T23:38:50.485Z,17.88
2018-07-19T23:41:24.761Z,17.85
2018-07-19T23:43:58.754Z,17.79
2018-07-19T23:46:33.446Z,17.73
2018-07-19T23:49:06.710Z,17.63
2018-07-19T23:51:38.107Z,17.59
2018-07-19T23:54:07.565Z,17.53
2018-07-19T23:56:36.656Z,17.44
2018-07-19T23:59:06.534Z,17.41
